Time;durP1;ratioP1;P1;durP2;ratioP2;P2;SDS_P1;SDS_P2;PMS_P1;PMS_P2;Temp;Humidity;BMP_temperature;BMP_pressure;BME280_temperature;BME280_humidity;BME280_pressure;Samples;Min_cycle;Max_cycle;Signal;HPM_P1;HPM_P2
2023/01/29 00:01:11;;;;;;;25.80;16.47;;;;;;;-0.09;100.00;101606.00;5000332;28;20854;-85
2023/01/29 00:03:38;;;;;;;30.67;18.10;;;;;;;-0.12;100.00;101600.84;4999915;28;20440;-84
2023/01/29 00:06:06;;;;;;;29.37;16.13;;;;;;;-0.08;100.00;101601.63;4999364;28;20488;-87
2023/01/29 00:08:33;;;;;;;27.60;17.67;;;;;;;-0.08;100.00;101593.75;4993541;28;20460;-86
2023/01/29 00:11:01;;;;;;;32.50;19.93;;;;;;;-0.12;100.00;101600.84;4989810;28;20476;-86
2023/01/29 00:13:29;;;;;;;26.63;17.37;;;;;;;0.01;100.00;101587.38;4987449;28;20455;-84
2023/01/29 00:15:57;;;;;;;29.00;17.87;;;;;;;-0.04;100.00;101588.34;4989379;28;20522;-85
2023/01/29 00:18:24;;;;;;;27.93;16.90;;;;;;;-0.16;100.00;101587.81;4996225;28;20534;-85
2023/01/29 00:20:50;;;;;;;26.83;17.10;;;;;;;-0.24;100.00;101585.41;4989921;28;21084;-85
2023/01/29 00:23:17;;;;;;;28.07;18.37;;;;;;;-0.22;100.00;101586.22;4983665;28;20441;-87
2023/01/29 00:25:44;;;;;;;33.73;17.77;;;;;;;-0.22;100.00;101580.97;4980411;28;20597;-86
2023/01/29 00:28:11;;;;;;;33.33;18.60;;;;;;;-0.33;100.00;101578.59;4997327;28;20483;-87
2023/01/29 00:30:39;;;;;;;26.13;17.37;;;;;;;-0.29;100.00;101582.88;5001191;28;20487;-86
2023/01/29 00:33:06;;;;;;;30.83;18.77;;;;;;;-0.31;100.00;101575.91;4992269;28;20476;-87
2023/01/29 00:35:33;;;;;;;31.30;20.50;;;;;;;-0.32;100.00;101579.47;5002432;28;20748;-87
2023/01/29 00:38:00;;;;;;;34.93;20.80;;;;;;;-0.34;100.00;101576.00;5003746;28;20488;-86
2023/01/29 00:40:27;;;;;;;29.67;17.60;;;;;;;-0.41;100.00;101583.19;5001558;28;20498;-85
2023/01/29 00:45:41;;;;;;;32.60;19.87;;;;;;;-0.33;100.00;101583.88;4984959;28;20472;-85
2023/01/29 00:48:08;;;;;;;28.57;19.33;;;;;;;-0.31;100.00;101568.03;5002488;28;20467;-86
2023/01/29 00:50:34;;;;;;;36.17;19.60;;;;;;;-0.22;100.00;101573.06;5002658;28;20514;-84
2023/01/29 00:53:01;;;;;;;29.73;19.60;;;;;;;-0.23;100.00;101573.97;5003064;28;20511;-86
2023/01/29 00:55:28;;;;;;;29.93;18.77;;;;;;;-0.44;100.00;101586.72;5001856;28;20510;-84
2023/01/29 00:57:54;;;;;;;37.80;20.10;;;;;;;-0.35;100.00;101569.03;5002545;28;20574;-85
2023/01/29 01:00:21;;;;;;;32.90;19.87;;;;;;;-0.28;100.00;101568.84;5001633;28;20555;-85
2023/01/29 01:03:06;;;;;;;30.90;18.13;;;;;;;-0.21;100.00;101572.16;5002973;28;20432;-85
2023/01/29 01:05:33;;;;;;;28.73;17.50;;;;;;;-0.13;100.00;101559.69;5003067;28;20486;-85
2023/01/29 01:08:00;;;;;;;25.03;15.80;;;;;;;-0.20;100.00;101564.22;5003848;28;20491;-85
2023/01/29 01:10:28;;;;;;;29.47;16.67;;;;;;;-0.15;100.00;101555.38;5001589;28;20487;-85
2023/01/29 01:12:56;;;;;;;27.03;16.17;;;;;;;-0.17;100.00;101560.69;5003312;28;20476;-86
2023/01/29 01:15:24;;;;;;;27.77;16.70;;;;;;;-0.11;100.00;101557.88;5002650;28;20451;-85
2023/01/29 01:17:56;;;;;;;28.30;17.17;;;;;;;-0.04;100.00;101556.81;5002936;28;20491;-86
2023/01/29 01:20:23;;;;;;;28.30;16.87;;;;;;;-0.08;100.00;101552.53;5002832;28;20440;-87
2023/01/29 01:22:50;;;;;;;30.23;18.70;;;;;;;0.02;100.00;101547.03;5004203;28;20432;-87
2023/01/29 01:25:17;;;;;;;35.23;18.97;;;;;;;-0.09;100.00;101532.41;5002437;28;20464;-85
2023/01/29 01:27:44;;;;;;;26.97;16.60;;;;;;;-0.10;100.00;101522.81;5004288;28;20466;-87
2023/01/29 01:30:12;;;;;;;37.23;20.47;;;;;;;-0.34;100.00;101515.56;5003213;28;20467;-87
2023/01/29 01:32:39;;;;;;;30.73;19.10;;;;;;;-0.23;100.00;101516.13;5004822;28;20511;-86
2023/01/29 01:35:08;;;;;;;30.13;19.10;;;;;;;-0.29;100.00;101513.69;5004991;28;20456;-86
2023/01/29 01:37:37;;;;;;;34.53;19.47;;;;;;;-0.25;100.00;101512.69;5003870;28;20543;-86
2023/01/29 01:40:11;;;;;;;31.70;20.30;;;;;;;-0.23;100.00;101519.63;5005088;28;20526;-85
2023/01/29 01:42:38;;;;;;;33.17;20.00;;;;;;;-0.29;100.00;101517.16;5003736;28;20524;-86
2023/01/29 01:45:09;;;;;;;35.57;19.80;;;;;;;-0.48;100.00;101510.66;5003765;28;20456;-87
2023/01/29 01:47:40;;;;;;;33.13;20.57;;;;;;;-0.47;100.00;101518.53;5003562;28;20491;-86
2023/01/29 01:50:11;;;;;;;35.93;21.40;;;;;;;-0.42;100.00;101529.78;5004298;28;20444;-84
2023/01/29 01:52:41;;;;;;;34.10;21.50;;;;;;;-0.52;100.00;101533.53;5004555;28;20512;-86
2023/01/29 01:55:09;;;;;;;34.27;21.47;;;;;;;-0.44;100.00;101534.19;5003660;28;20464;-85
2023/01/29 01:57:36;;;;;;;32.50;19.50;;;;;;;-0.55;100.00;101536.22;5003702;28;20448;-86
2023/01/29 02:00:09;;;;;;;38.33;21.60;;;;;;;-0.45;100.00;101537.72;5003844;28;20754;-86
2023/01/29 02:10:53;;;;;;;38.70;23.70;;;;;;;-0.38;100.00;101552.44;5003895;28;20693;-84
2023/01/29 02:13:20;;;;;;;38.63;23.83;;;;;;;-0.40;100.00;101553.34;5004116;28;21015;-86
2023/01/29 02:15:47;;;;;;;39.10;22.03;;;;;;;-0.53;100.00;101552.81;5002693;28;20514;-85
2023/01/29 02:18:15;;;;;;;37.20;22.13;;;;;;;-0.57;100.00;101543.28;5003791;28;20484;-86
2023/01/29 02:20:47;;;;;;;44.77;24.57;;;;;;;-0.55;100.00;101546.72;5003520;28;20561;-86
2023/01/29 02:23:31;;;;;;;37.93;23.67;;;;;;;-0.43;100.00;101546.44;5003542;28;20483;-86
2023/01/29 02:26:18;;;;;;;38.97;22.47;;;;;;;-0.47;100.00;101542.16;4998628;28;20471;-86
2023/01/29 02:28:52;;;;;;;42.33;24.70;;;;;;;-0.42;100.00;101553.41;5000461;28;20462;-87
2023/01/29 02:31:25;;;;;;;40.53;24.70;;;;;;;-0.34;100.00;101561.09;4988529;28;20551;-87
2023/01/29 02:33:59;;;;;;;42.37;24.30;;;;;;;-0.26;100.00;101568.78;5002946;28;20504;-85
2023/01/29 02:36:34;;;;;;;39.67;23.00;;;;;;;-0.31;100.00;101558.41;4996414;28;20514;-86
2023/01/29 02:39:06;;;;;;;43.27;25.00;;;;;;;-0.41;100.00;101560.38;5004175;28;20460;-88
2023/01/29 02:41:38;;;;;;;45.70;25.33;;;;;;;-0.44;100.00;101568.34;5003092;28;20476;-88
2023/01/29 02:44:12;;;;;;;41.97;23.40;;;;;;;-0.25;100.00;101565.25;5003253;28;20448;-87
2023/01/29 02:46:44;;;;;;;45.00;24.90;;;;;;;-0.29;100.00;101564.47;5002823;28;20509;-86
2023/01/29 02:49:15;;;;;;;41.83;24.77;;;;;;;-0.26;100.00;101559.16;5003471;28;20921;-88
2023/01/29 02:51:44;;;;;;;46.50;26.40;;;;;;;-0.30;100.00;101559.25;5002976;28;21012;-87
2023/01/29 02:54:17;;;;;;;43.70;24.40;;;;;;;-0.31;100.00;101560.16;5002617;28;20447;-89
2023/01/29 02:56:49;;;;;;;43.70;24.80;;;;;;;-0.18;100.00;101555.47;5003014;28;21092;-88
2023/01/29 02:59:21;;;;;;;47.40;25.03;;;;;;;-0.24;100.00;101559.13;5003082;28;21597;-88
2023/01/29 03:01:51;;;;;;;43.03;26.37;;;;;;;-0.28;100.00;101554.81;5002760;28;20511;-86
2023/01/29 03:04:23;;;;;;;44.63;25.13;;;;;;;-0.18;100.00;101547.56;5003488;28;20459;-88
2023/01/29 03:06:53;;;;;;;45.80;26.50;;;;;;;-0.05;100.00;101541.09;5002993;28;20480;-87
2023/01/29 03:09:24;;;;;;;45.67;25.63;;;;;;;-0.17;100.00;101542.28;5003126;28;20484;-88
2023/01/29 03:11:54;;;;;;;47.50;26.03;;;;;;;-0.22;100.00;101539.75;5016752;28;20510;-89
2023/01/29 03:14:24;;;;;;;46.43;24.40;;;;;;;-0.22;100.00;101542.38;5003239;28;20470;-88
2023/01/29 03:16:52;;;;;;;47.20;27.57;;;;;;;-0.18;100.00;101556.31;5002851;28;20502;-88
2023/01/29 03:19:21;;;;;;;44.07;25.47;;;;;;;-0.07;100.00;101553.38;5003095;28;20494;-87
2023/01/29 03:21:54;;;;;;;43.10;23.80;;;;;;;-0.22;100.00;101549.41;5002935;28;20514;-87
2023/01/29 03:32:51;;;;;;;44.93;24.20;;;;;;;-0.10;100.00;101537.72;5003053;28;20483;-85
2023/01/29 03:35:19;;;;;;;47.50;24.13;;;;;;;-0.08;100.00;101528.88;5002517;28;20456;-88
2023/01/29 03:37:47;;;;;;;44.43;25.50;;;;;;;-0.05;100.00;101530.59;5001916;28;20444;-88
2023/01/29 03:40:14;;;;;;;43.73;25.27;;;;;;;-0.14;100.00;101517.66;4998655;28;20483;-88
2023/01/29 03:42:48;;;;;;;42.00;24.00;;;;;;;-0.14;100.00;101525.53;5003194;28;20476;-87
2023/01/29 03:45:20;;;;;;;47.23;26.07;;;;;;;-0.08;100.00;101530.66;5001434;28;20495;-87
2023/01/29 03:47:49;;;;;;;40.63;24.63;;;;;;;-0.13;100.00;101520.25;5002872;28;20471;-88
2023/01/29 03:50:31;;;;;;;46.17;25.37;;;;;;;-0.10;100.00;101521.94;4989457;28;20519;-85
2023/01/29 03:53:02;;;;;;;45.80;23.73;;;;;;;-0.12;100.00;101522.00;4983582;28;20508;-86
2023/01/29 03:55:34;;;;;;;45.30;25.90;;;;;;;-0.05;100.00;101510.41;4998854;28;20475;-87
2023/01/29 03:58:05;;;;;;;37.50;23.40;;;;;;;-0.04;100.00;101527.03;5002514;28;20508;-86
2023/01/29 04:00:37;;;;;;;45.10;25.10;;;;;;;-0.12;100.00;101519.38;5002441;28;20464;-87
2023/01/29 04:03:08;;;;;;;39.83;22.87;;;;;;;-0.19;100.00;101512.53;5004165;28;20476;-89
2023/01/29 04:05:40;;;;;;;44.50;25.00;;;;;;;-0.10;100.00;101509.66;5006100;28;20491;-88
2023/01/29 04:08:08;;;;;;;40.97;23.67;;;;;;;-0.16;100.00;101501.06;5007373;28;20456;-88
2023/01/29 04:10:36;;;;;;;43.37;25.87;;;;;;;-0.05;100.00;101505.16;5006725;28;20499;-87
2023/01/29 04:13:08;;;;;;;45.13;25.60;;;;;;;-0.30;100.00;101493.56;5006219;28;20564;-87
2023/01/29 04:15:40;;;;;;;42.30;24.77;;;;;;;-0.16;100.00;101499.31;5004711;28;20491;-86
2023/01/29 04:18:06;;;;;;;45.70;26.57;;;;;;;-0.16;100.00;101493.19;5023416;28;20458;-86
2023/01/29 04:20:35;;;;;;;46.53;24.90;;;;;;;-0.16;100.00;101485.31;5006216;28;20476;-88
2023/01/29 04:23:01;;;;;;;45.57;26.00;;;;;;;-0.17;100.00;101467.78;5007563;28;20479;-86
2023/01/29 04:25:35;;;;;;;43.77;24.50;;;;;;;-0.21;100.00;101457.41;5006880;28;21272;-87
2023/01/29 04:28:05;;;;;;;48.80;27.10;;;;;;;-0.26;100.00;101443.50;4998649;28;20451;-87
2023/01/29 04:30:41;;;;;;;46.57;25.70;;;;;;;-0.11;100.00;101444.84;5004837;28;20498;-86
2023/01/29 04:33:17;;;;;;;44.90;25.93;;;;;;;-0.05;100.00;101436.78;5005010;28;20483;-87
2023/01/29 04:35:54;;;;;;;45.20;24.70;;;;;;;-0.15;100.00;101430.06;5005212;28;20860;-85
2023/01/29 04:38:30;;;;;;;47.13;25.67;;;;;;;-0.32;100.00;101422.66;5005570;28;20486;-87
2023/01/29 04:41:03;;;;;;;42.03;25.23;;;;;;;-0.25;100.00;101423.34;5005141;28;20555;-88
2023/01/29 04:43:35;;;;;;;47.50;26.27;;;;;;;-0.23;100.00;101427.63;5006261;28;20432;-87
2023/01/29 04:46:12;;;;;;;43.83;26.77;;;;;;;-0.24;100.00;101425.94;5004321;28;20491;-85
2023/01/29 04:48:49;;;;;;;43.27;25.10;;;;;;;-0.28;100.00;101426.94;5005424;28;20464;-86
2023/01/29 04:51:20;;;;;;;45.20;25.70;;;;;;;-0.23;100.00;101418.91;5004376;28;20511;-86
2023/01/29 04:53:51;;;;;;;45.50;26.40;;;;;;;-0.29;100.00;101406.81;5005453;28;20504;-86
2023/01/29 04:56:22;;;;;;;48.50;24.70;;;;;;;-0.26;100.00;101408.47;5004468;28;20488;-87
2023/01/29 04:58:50;;;;;;;48.43;25.67;;;;;;;-0.26;100.00;101411.97;5004648;28;20523;-87
2023/01/29 05:01:19;;;;;;;47.60;25.10;;;;;;;-0.39;100.00;101406.19;4999582;28;20514;-87
2023/01/29 05:03:49;;;;;;;50.60;27.13;;;;;;;-0.47;100.00;101413.44;5006104;28;20474;-87
2023/01/29 05:06:17;;;;;;;46.43;24.70;;;;;;;-0.37;100.00;101424.53;4999709;28;21035;-87
2023/01/29 05:08:44;;;;;;;47.93;26.70;;;;;;;-0.43;100.00;101416.84;5004899;28;20464;-87
2023/01/29 05:11:13;;;;;;;48.13;26.27;;;;;;;-0.50;100.00;101413.50;5003351;28;20500;-86
2023/01/29 05:13:40;;;;;;;46.50;24.73;;;;;;;-0.59;100.00;101422.50;4991694;28;20472;-86
2023/01/29 05:16:10;;;;;;;48.90;26.60;;;;;;;-0.52;100.00;101425.84;4994278;28;20484;-86
2023/01/29 05:18:39;;;;;;;52.80;28.63;;;;;;;-0.57;100.00;101428.56;5000630;28;20488;-88
2023/01/29 05:21:07;;;;;;;48.13;27.33;;;;;;;-0.66;100.00;101438.44;5005036;28;20472;-89
2023/01/29 05:23:34;;;;;;;46.73;24.67;;;;;;;-0.74;100.00;101430.78;5007594;28;20460;-88
2023/01/29 05:26:01;;;;;;;45.70;24.50;;;;;;;-0.81;100.00;101429.22;5006800;28;20492;-88
2023/01/29 05:28:27;;;;;;;50.60;26.63;;;;;;;-0.81;100.00;101431.84;5006015;28;20937;-87
2023/01/29 05:30:55;;;;;;;49.10;27.50;;;;;;;-0.77;100.00;101434.31;5005152;28;20491;-88
2023/01/29 05:33:24;;;;;;;46.90;28.00;;;;;;;-0.80;100.00;101450.19;5008123;28;20241;-91
2023/01/29 05:35:53;;;;;;;50.50;27.10;;;;;;;-0.84;100.00;101452.91;5006463;28;20496;-88
2023/01/29 05:38:20;;;;;;;48.23;26.70;;;;;;;-0.74;100.00;101448.28;5005603;28;20804;-87
2023/01/29 05:40:47;;;;;;;50.20;27.30;;;;;;;-0.64;100.00;101445.38;5005363;28;20506;-89
2023/01/29 05:43:16;;;;;;;50.97;28.10;;;;;;;-0.55;100.00;101441.66;5006388;28;20448;-88
2023/01/29 05:45:43;;;;;;;47.40;26.83;;;;;;;-0.54;100.00;101432.88;5003676;28;20496;-88
2023/01/29 05:48:09;;;;;;;44.70;26.30;;;;;;;-0.61;100.00;101431.31;5004536;28;20480;-88
2023/01/29 05:50:36;;;;;;;55.90;28.00;;;;;;;-0.60;100.00;101438.28;5004101;28;20534;-88
2023/01/29 05:53:05;;;;;;;50.97;29.20;;;;;;;-0.51;100.00;101447.69;5005255;28;20566;-87
2023/01/29 05:55:31;;;;;;;52.00;29.07;;;;;;;-0.45;100.00;101445.78;5004426;28;20476;-88
2023/01/29 05:57:58;;;;;;;51.10;27.30;;;;;;;-0.46;100.00;101464.19;5003729;28;20483;-87
2023/01/29 06:00:25;;;;;;;49.83;29.00;;;;;;;-0.44;100.00;101462.38;5002579;28;20460;-88
2023/01/29 06:02:52;;;;;;;49.93;27.97;;;;;;;-0.45;100.00;101460.66;4993538;28;20476;-88
2023/01/29 06:05:18;;;;;;;50.30;27.37;;;;;;;-0.51;100.00;101471.34;5008077;28;20460;-87
2023/01/29 06:07:45;;;;;;;48.00;25.83;;;;;;;-0.51;100.00;101461.69;5004518;28;20455;-86
2023/01/29 06:10:14;;;;;;;51.83;27.97;;;;;;;-0.51;100.00;101459.06;4998890;28;20440;-86
2023/01/29 06:12:41;;;;;;;53.93;28.50;;;;;;;-0.59;100.00;101463.63;5003972;28;20444;-88
2023/01/29 06:15:08;;;;;;;50.90;27.23;;;;;;;-0.59;100.00;101451.38;5002711;28;20460;-85
2023/01/29 06:17:35;;;;;;;51.43;27.87;;;;;;;-0.70;100.00;101460.44;5003992;28;20487;-85
2023/01/29 06:20:01;;;;;;;52.60;29.50;;;;;;;-0.45;100.00;101460.66;5004184;28;20464;-88
2023/01/29 06:22:28;;;;;;;54.67;29.90;;;;;;;-0.49;100.00;101457.25;5004927;28;20507;-88
2023/01/29 06:24:55;;;;;;;54.37;27.70;;;;;;;-0.39;100.00;101471.88;5004547;28;20502;-87
2023/01/29 06:27:23;;;;;;;53.77;29.63;;;;;;;-0.34;100.00;101484.91;5002840;28;20878;-87
2023/01/29 06:29:50;;;;;;;55.57;31.33;;;;;;;-0.22;100.00;101487.19;5004215;28;20468;-87
2023/01/29 06:32:16;;;;;;;54.27;30.27;;;;;;;-0.37;100.00;101477.09;5003950;28;20511;-84
2023/01/29 06:34:43;;;;;;;58.90;30.70;;;;;;;-0.44;100.00;101484.25;5003600;28;20575;-87
2023/01/29 06:37:09;;;;;;;44.63;26.27;;;;;;;-0.46;100.00;101486.06;5002482;28;20471;-88
2023/01/29 06:39:36;;;;;;;55.87;29.60;;;;;;;-0.62;100.00;101482.97;5002961;28;20458;-87
2023/01/29 06:42:03;;;;;;;52.10;28.47;;;;;;;-0.66;100.00;101477.84;4994187;28;20861;-87
2023/01/29 06:44:31;;;;;;;61.83;30.30;;;;;;;-0.64;100.00;101478.69;4998034;28;20487;-89
2023/01/29 06:46:57;;;;;;;55.13;29.70;;;;;;;-0.63;100.00;101472.50;4990572;28;20491;-92
2023/01/29 06:49:24;;;;;;;57.50;29.13;;;;;;;-0.60;100.00;101475.06;4985416;28;20464;-89
2023/01/29 06:51:51;;;;;;;51.60;29.83;;;;;;;-0.63;100.00;101477.75;4993693;28;20516;-91
2023/01/29 06:54:17;;;;;;;55.53;30.33;;;;;;;-0.62;100.00;101471.63;4995333;28;20480;-87
2023/01/29 06:59:26;;;;;;;54.60;29.53;;;;;;;-0.62;100.00;101450.59;4983322;28;21113;-88
2023/01/29 07:01:54;;;;;;;51.00;29.00;;;;;;;-0.45;100.00;101458.91;5002262;28;20511;-90
2023/01/29 07:04:20;;;;;;;54.23;29.63;;;;;;;-0.43;100.00;101461.50;4984523;28;20433;-90
2023/01/29 07:06:47;;;;;;;49.30;28.20;;;;;;;-0.50;100.00;101465.19;4983207;28;20477;-87
2023/01/29 07:09:14;;;;;;;56.13;29.50;;;;;;;-0.59;100.00;101471.50;4995800;28;20831;-87
2023/01/29 07:11:41;;;;;;;51.47;27.30;;;;;;;-0.48;100.00;101474.75;4997429;28;20511;-85
2023/01/29 07:14:08;;;;;;;54.93;29.43;;;;;;;-0.32;100.00;101475.19;5002970;28;20519;-85
2023/01/29 07:16:34;;;;;;;49.47;27.10;;;;;;;-0.38;100.00;101470.97;5001564;28;20566;-85
2023/01/29 07:19:02;;;;;;;58.20;30.63;;;;;;;-0.50;100.00;101481.81;5002272;28;20459;-86
2023/01/29 07:21:29;;;;;;;52.70;27.87;;;;;;;-0.29;100.00;101479.53;5002064;28;20479;-86
2023/01/29 07:23:56;;;;;;;52.80;29.20;;;;;;;-0.27;100.00;101472.47;4986025;28;20463;-84
2023/01/29 07:26:22;;;;;;;53.27;28.50;;;;;;;-0.36;100.00;101480.56;4996604;28;20525;-85
2023/01/29 07:28:49;;;;;;;56.53;28.87;;;;;;;-0.27;100.00;101472.47;4993539;28;20463;-85
2023/01/29 07:31:15;;;;;;;57.60;28.83;;;;;;;-0.23;100.00;101471.47;4995335;28;20489;-84
2023/01/29 07:33:44;;;;;;;59.27;30.70;;;;;;;-0.39;100.00;101466.63;4993701;28;20532;-85
2023/01/29 07:36:13;;;;;;;56.77;30.60;;;;;;;-0.48;100.00;101463.38;5000562;28;20479;-85
2023/01/29 07:38:40;;;;;;;51.03;29.80;;;;;;;-0.53;100.00;101453.00;4997288;28;20448;-85
2023/01/29 07:41:06;;;;;;;58.90;31.77;;;;;;;-0.52;100.00;101459.09;5005428;28;20467;-86
2023/01/29 07:43:33;;;;;;;52.67;28.77;;;;;;;-0.50;100.00;101454.69;5006691;28;20487;-85
2023/01/29 07:46:03;;;;;;;58.20;29.57;;;;;;;-0.47;100.00;101476.47;5001711;28;20565;-85
2023/01/29 07:48:29;;;;;;;56.70;30.63;;;;;;;-0.36;100.00;101467.44;4991014;28;20466;-84
2023/01/29 07:50:57;;;;;;;56.17;31.77;;;;;;;-0.34;100.00;101461.25;5005864;28;20471;-84
2023/01/29 07:53:25;;;;;;;51.90;29.67;;;;;;;-0.24;100.00;101440.84;5004975;28;20483;-85
2023/01/29 07:55:52;;;;;;;49.33;27.07;;;;;;;-0.20;100.00;101426.72;4998634;28;20511;-86
2023/01/29 07:58:18;;;;;;;48.63;28.03;;;;;;;-0.24;100.00;101414.56;5002102;28;20527;-85
2023/01/29 08:00:45;;;;;;;43.40;25.73;;;;;;;-0.17;100.00;101423.13;5004750;28;20484;-85
2023/01/29 08:03:14;;;;;;;52.93;27.67;;;;;;;-0.15;100.00;101430.06;5006509;28;20436;-86
2023/01/29 08:05:41;;;;;;;47.70;27.53;;;;;;;-0.03;100.00;101434.97;5005773;28;20491;-87
2023/01/29 08:08:08;;;;;;;49.27;26.50;;;;;;;0.08;100.00;101436.44;5002523;28;20479;-86
2023/01/29 08:10:37;;;;;;;52.20;27.43;;;;;;;-0.09;100.00;101431.66;5006052;28;20459;-86
2023/01/29 08:13:05;;;;;;;56.63;27.17;;;;;;;-0.05;100.00;101412.28;4995210;28;20484;-84
2023/01/29 08:15:32;;;;;;;52.20;28.90;;;;;;;-0.11;100.00;101394.03;4996720;28;20504;-83
2023/01/29 08:17:58;;;;;;;51.70;27.60;;;;;;;0.05;100.00;101390.03;4998312;28;20463;-84
2023/01/29 08:20:25;;;;;;;50.40;28.00;;;;;;;0.10;100.00;101385.50;4998648;28;20448;-86
2023/01/29 08:22:59;;;;;;;49.07;27.17;;;;;;;0.26;100.00;101377.16;4997936;28;20831;-85
2023/01/29 08:25:25;;;;;;;47.33;25.67;;;;;;;0.17;100.00;101371.31;4994566;28;20460;-84
2023/01/29 08:27:54;;;;;;;50.57;26.70;;;;;;;0.02;100.00;101378.75;4998477;28;20472;-85
2023/01/29 08:30:21;;;;;;;55.57;29.83;;;;;;;-0.06;100.00;101371.13;4997591;28;20487;-85
2023/01/29 08:32:47;;;;;;;49.20;26.70;;;;;;;0.07;100.00;101396.16;5004745;28;20444;-85
2023/01/29 08:35:14;;;;;;;48.83;26.80;;;;;;;0.14;100.00;101399.44;4997741;28;20519;-85
2023/01/29 08:37:41;;;;;;;51.77;27.27;;;;;;;0.48;100.00;101383.47;4998967;28;20456;-86
2023/01/29 08:40:11;;;;;;;50.13;29.17;;;;;;;0.46;100.00;101395.84;4996966;28;20460;-86
2023/01/29 08:42:37;;;;;;;53.60;29.60;;;;;;;0.50;100.00;101388.69;4999689;28;20471;-86
2023/01/29 08:45:07;;;;;;;52.70;28.63;;;;;;;0.41;100.00;101405.63;4994228;28;20566;-86
2023/01/29 08:47:34;;;;;;;52.07;28.70;;;;;;;0.43;100.00;101405.59;4997139;28;20479;-86
2023/01/29 08:50:00;;;;;;;52.73;29.03;;;;;;;0.27;100.00;101400.78;4996286;28;20487;-85
2023/01/29 08:52:27;;;;;;;52.60;27.17;;;;;;;0.26;100.00;101398.22;5000449;28;20511;-86
2023/01/29 08:54:53;;;;;;;54.20;29.23;;;;;;;0.05;100.00;101391.81;5004713;28;20484;-86
2023/01/29 08:57:20;;;;;;;53.53;29.60;;;;;;;0.06;100.00;101380.41;5004019;28;20696;-86
2023/01/29 08:59:47;;;;;;;58.67;31.43;;;;;;;-0.06;100.00;101377.22;4998425;28;21165;-85
2023/01/29 09:02:15;;;;;;;54.23;30.47;;;;;;;0.13;100.00;101364.41;5003789;28;20988;-86
2023/01/29 09:04:42;;;;;;;58.77;31.10;;;;;;;0.13;100.00;101374.06;5002020;28;20474;-86
2023/01/29 09:07:08;;;;;;;55.27;31.20;;;;;;;0.37;100.00;101364.56;5001568;28;20472;-85
2023/01/29 09:09:36;;;;;;;60.77;31.67;;;;;;;0.28;100.00;101370.97;5002799;28;20460;-87
2023/01/29 09:12:03;;;;;;;57.57;30.87;;;;;;;0.27;100.00;101371.00;4992196;28;20480;-87
2023/01/29 09:14:29;;;;;;;57.50;29.60;;;;;;;0.30;100.00;101376.19;4998546;28;20511;-85
2023/01/29 09:16:56;;;;;;;57.90;29.73;;;;;;;0.36;100.00;101379.50;4999209;28;20864;-87
2023/01/29 09:19:25;;;;;;;57.27;30.50;;;;;;;0.29;100.00;101382.34;5000319;28;20514;-85
2023/01/29 09:21:51;;;;;;;60.90;29.43;;;;;;;-0.17;100.00;101376.69;5001470;28;20538;-84
2023/01/29 09:24:18;;;;;;;57.97;31.83;;;;;;;-0.07;100.00;101370.25;5003808;28;21020;-86
2023/01/29 09:26:45;;;;;;;58.60;31.30;;;;;;;0.09;100.00;101375.06;5003146;28;20526;-87
2023/01/29 09:29:11;;;;;;;53.90;30.17;;;;;;;0.23;100.00;101374.66;5002496;28;21071;-84
2023/01/29 09:31:38;;;;;;;52.90;28.67;;;;;;;0.26;100.00;101371.91;5002697;28;21016;-84
2023/01/29 09:34:05;;;;;;;60.87;31.20;;;;;;;0.15;100.00;101378.34;4997433;28;20518;-85
2023/01/29 09:36:33;;;;;;;57.30;31.87;;;;;;;0.52;100.00;101390.41;5001565;28;20491;-85
2023/01/29 09:39:00;;;;;;;55.53;31.40;;;;;;;0.45;100.00;101383.59;5003697;28;20460;-82
2023/01/29 09:41:37;;;;;;;60.10;32.47;;;;;;;0.77;100.00;101388.75;5001836;28;20480;-84
2023/01/29 09:44:12;;;;;;;54.20;29.43;;;;;;;1.03;100.00;101386.09;4991236;28;20451;-83
2023/01/29 09:46:41;;;;;;;54.73;30.03;;;;;;;0.74;100.00;101394.97;4998956;28;20956;-83
2023/01/29 09:49:13;;;;;;;57.77;31.43;;;;;;;0.70;100.00;101394.19;5002838;28;20451;-82
2023/01/29 09:51:44;;;;;;;62.63;31.63;;;;;;;0.60;100.00;101389.28;4988185;28;20563;-82
2023/01/29 09:54:16;;;;;;;62.90;30.97;;;;;;;0.49;100.00;101379.97;4995911;28;20559;-84
2023/01/29 09:56:45;;;;;;;58.13;31.00;;;;;;;0.79;100.00;101374.63;5001077;28;20532;-82
2023/01/29 09:59:14;;;;;;;53.93;31.53;;;;;;;0.93;100.00;101374.16;4992797;28;20544;-84
2023/01/29 10:01:48;;;;;;;65.67;33.60;;;;;;;1.13;100.00;101369.09;4992119;28;20520;-83
2023/01/29 10:04:40;;;;;;;58.10;31.90;;;;;;;1.05;100.00;101368.47;4993848;28;20464;-85
2023/01/29 10:07:38;;;;;;;59.73;31.57;;;;;;;0.80;100.00;101360.56;4971508;28;20538;-85
2023/01/29 10:10:13;;;;;;;60.37;31.40;;;;;;;0.70;100.00;101357.34;4961021;28;20469;-84
2023/01/29 10:12:57;;;;;;;57.23;31.10;;;;;;;0.90;100.00;101342.66;4995645;28;20464;-85
2023/01/29 10:15:44;;;;;;;53.27;29.07;;;;;;;0.83;100.00;101341.16;4996567;28;20519;-84
2023/01/29 10:18:35;;;;;;;61.80;30.37;;;;;;;1.01;100.00;101318.59;4989352;28;20483;-84
2023/01/29 10:21:11;;;;;;;54.23;29.23;;;;;;;1.24;100.00;101313.38;4999025;28;20515;-83
2023/01/29 10:23:42;;;;;;;60.30;32.17;;;;;;;1.35;100.00;101309.50;5002196;28;20483;-83
2023/01/29 10:26:21;;;;;;;55.07;28.97;;;;;;;1.56;99.44;101308.72;5000825;28;20476;-83
2023/01/29 10:28:50;;;;;;;53.30;30.47;;;;;;;1.48;99.48;101302.88;4999345;28;20444;-83
2023/01/29 10:31:20;;;;;;;52.00;31.90;;;;;;;1.84;98.84;101312.94;5001792;28;20771;-83
2023/01/29 10:33:50;;;;;;;57.67;30.50;;;;;;;1.14;100.00;101312.00;5002745;28;20693;-83
2023/01/29 10:36:19;;;;;;;56.73;32.00;;;;;;;1.22;100.00;101307.31;5001436;28;20560;-82
2023/01/29 10:38:49;;;;;;;52.63;28.97;;;;;;;0.69;100.00;101307.38;5003011;28;20530;-83
2023/01/29 10:41:27;;;;;;;55.10;31.20;;;;;;;0.77;100.00;101301.88;4996613;28;20480;-82
2023/01/29 10:44:06;;;;;;;54.57;31.33;;;;;;;0.76;100.00;101301.00;4988076;28;20511;-83
2023/01/29 10:46:43;;;;;;;57.40;30.03;;;;;;;1.03;100.00;101296.56;5001925;28;20775;-83
2023/01/29 10:49:18;;;;;;;55.83;31.40;;;;;;;1.26;100.00;101295.75;5002570;28;20463;-82
2023/01/29 10:51:54;;;;;;;50.87;29.30;;;;;;;1.02;100.00;101288.72;5001134;28;20549;-83
2023/01/29 10:54:33;;;;;;;57.93;31.30;;;;;;;1.03;100.00;101291.31;5002220;28;20538;-83
2023/01/29 10:57:07;;;;;;;52.00;30.77;;;;;;;1.11;100.00;101296.28;4982191;28;20472;-83
2023/01/29 10:59:43;;;;;;;57.43;30.03;;;;;;;1.19;100.00;101296.03;4996252;28;20559;-83
2023/01/29 11:02:16;;;;;;;55.90;30.80;;;;;;;1.20;100.00;101295.97;5001849;28;21003;-83
2023/01/29 11:04:43;;;;;;;53.73;29.60;;;;;;;1.23;100.00;101289.72;5002247;28;20436;-83
2023/01/29 11:07:10;;;;;;;52.63;29.50;;;;;;;1.00;100.00;101272.97;5000887;28;20486;-82
2023/01/29 11:09:42;;;;;;;50.20;28.20;;;;;;;0.99;100.00;101273.03;5002078;28;20456;-83
2023/01/29 11:12:12;;;;;;;55.40;30.70;;;;;;;1.15;100.00;101265.44;4999202;28;20874;-83
2023/01/29 11:14:44;;;;;;;55.70;31.40;;;;;;;1.08;100.00;101257.75;5000173;28;20483;-82
2023/01/29 11:17:22;;;;;;;58.00;30.23;;;;;;;1.40;100.00;101257.50;4994140;28;20487;-82
2023/01/29 11:19:50;;;;;;;51.67;31.00;;;;;;;1.41;100.00;101256.59;5001067;28;20513;-82
2023/01/29 11:22:18;;;;;;;50.70;29.37;;;;;;;1.22;100.00;101249.38;5000734;28;20490;-82
2023/01/29 11:24:47;;;;;;;52.17;29.67;;;;;;;1.36;100.00;101250.63;5001705;28;20451;-83
2023/01/29 11:27:15;;;;;;;51.87;28.10;;;;;;;1.50;100.00;101245.72;5000573;28;20472;-82
2023/01/29 11:29:43;;;;;;;56.00;29.60;;;;;;;1.19;100.00;101251.25;5001262;28;20456;-82
2023/01/29 11:32:13;;;;;;;49.47;27.77;;;;;;;1.43;100.00;101249.50;5001324;28;20588;-82
2023/01/29 11:34:58;;;;;;;47.50;27.17;;;;;;;1.55;100.00;101249.03;5001554;28;20507;-82
2023/01/29 11:37:33;;;;;;;52.90;28.37;;;;;;;1.72;100.00;101247.50;5001140;28;20486;-83